Time;durP1;ratioP1;P1;durP2;ratioP2;P2;SDS_P1;SDS_P2;PMS_P1;PMS_P2;Temp;Humidity;BMP_temperature;BMP_pressure;BME280_temperature;BME280_humidity;BME280_pressure;Samples;Min_cycle;Max_cycle;Signal;HPM_P1;HPM_P2
2021/07/24 00:02:18;;;;;;;19.37;13.20;;;;;;;13.76;71.72;100168.89;2065855;83;21169;-68
2021/07/24 00:05:20;;;;;;;18.32;12.25;;;;;;;13.78;71.54;100174.05;2087516;82;21087;-71
2021/07/24 00:08:22;;;;;;;16.70;11.10;;;;;;;13.79;71.50;100176.52;2097733;82;21022;-67
2021/07/24 00:11:23;;;;;;;19.20;11.93;;;;;;;13.76;71.12;100174.22;2069717;83;21025;-67
2021/07/24 00:14:26;;;;;;;25.15;11.85;;;;;;;13.73;71.08;100169.78;2086325;82;21718;-68
2021/07/24 00:17:28;;;;;;;19.27;11.75;;;;;;;13.69;71.11;100173.33;2084333;83;21462;-67
2021/07/24 00:20:29;;;;;;;17.27;11.10;;;;;;;13.67;71.26;100174.01;2085667;83;21566;-68
2021/07/24 00:23:31;;;;;;;22.13;13.22;;;;;;;13.62;71.20;100171.89;2094726;83;21777;-66
2021/07/24 00:26:33;;;;;;;24.75;15.28;;;;;;;13.60;71.36;100170.42;2077351;82;21117;-68
2021/07/24 00:29:35;;;;;;;30.25;15.88;;;;;;;13.55;72.00;100168.33;2080326;82;21160;-68
2021/07/24 00:32:37;;;;;;;22.67;15.38;;;;;;;13.50;72.36;100165.38;2071850;82;21156;-67
2021/07/24 00:35:38;;;;;;;28.98;16.10;;;;;;;13.38;72.44;100163.69;2092080;82;21395;-69
2021/07/24 00:38:41;;;;;;;23.67;14.38;;;;;;;13.35;72.80;100169.90;2076085;82;21659;-66
2021/07/24 00:41:52;;;;;;;23.32;14.38;;;;;;;13.29;72.82;100156.80;2079032;82;21584;-72
2021/07/24 00:45:00;;;;;;;25.62;15.50;;;;;;;13.26;73.02;100162.47;2081339;82;21133;-68
2021/07/24 00:48:03;;;;;;;23.83;15.35;;;;;;;13.18;73.50;100158.55;2085147;83;21604;-66
2021/07/24 00:51:10;;;;;;;22.95;14.58;;;;;;;13.17;73.74;100156.38;2089919;82;21562;-68
2021/07/24 00:54:12;;;;;;;26.68;14.78;;;;;;;13.14;74.04;100153.25;2073793;82;21079;-68
2021/07/24 00:57:16;;;;;;;21.12;13.85;;;;;;;13.15;73.72;100154.89;2081223;81;21962;-71
2021/07/24 01:00:19;;;;;;;21.27;12.80;;;;;;;13.15;73.62;100158.41;2089699;83;21097;-72
2021/07/24 01:03:21;;;;;;;25.12;13.05;;;;;;;13.15;73.16;100158.89;2084425;82;21040;-71
2021/07/24 01:06:23;;;;;;;26.25;14.00;;;;;;;13.08;72.99;100153.48;2091929;83;21096;-68
2021/07/24 01:09:25;;;;;;;21.75;15.18;;;;;;;13.05;73.64;100152.52;2079861;82;21066;-70
2021/07/24 01:12:27;;;;;;;21.07;13.72;;;;;;;12.94;73.89;100144.45;2069687;82;21053;-67
2021/07/24 01:15:29;;;;;;;17.12;11.43;;;;;;;12.88;73.96;100147.84;2088235;82;21141;-68
2021/07/24 01:18:31;;;;;;;23.62;12.40;;;;;;;12.90;73.58;100149.02;2080941;83;21053;-67
2021/07/24 01:21:34;;;;;;;25.52;14.38;;;;;;;12.85;73.37;100143.40;2097743;82;21121;-70
2021/07/24 01:24:36;;;;;;;20.50;13.08;;;;;;;12.84;73.47;100144.39;2088340;82;21581;-69
2021/07/24 01:27:46;;;;;;;22.87;13.32;;;;;;;12.87;73.68;100138.73;2075588;83;21123;-68
2021/07/24 01:30:48;;;;;;;20.27;12.40;;;;;;;12.84;73.62;100138.58;2085897;83;21533;-70
2021/07/24 01:33:50;;;;;;;20.95;12.20;;;;;;;12.84;73.50;100147.91;2084543;82;21161;-67
2021/07/24 01:36:52;;;;;;;20.10;11.78;;;;;;;12.84;73.32;100141.25;2085609;82;21167;-69
2021/07/24 01:39:54;;;;;;;21.97;11.38;;;;;;;12.83;73.15;100142.23;2080577;82;21091;-67
2021/07/24 01:42:58;;;;;;;22.93;13.28;;;;;;;12.83;73.08;100150.22;2084831;82;21136;-72
2021/07/24 01:46:00;;;;;;;20.02;11.45;;;;;;;12.78;73.16;100149.93;2075093;82;22833;-66
2021/07/24 01:55:38;;;;;;;22.58;12.80;;;;;;;12.70;72.86;100155.35;2081379;83;21021;-70
2021/07/24 01:58:42;;;;;;;26.87;13.93;;;;;;;12.67;73.11;100155.20;2068584;82;21131;-67
2021/07/24 02:01:45;;;;;;;17.17;12.37;;;;;;;12.66;73.49;100150.87;2085122;83;21090;-69
2021/07/24 02:04:52;;;;;;;17.20;11.15;;;;;;;12.64;73.23;100144.06;2095382;82;20996;-67
2021/07/24 02:07:58;;;;;;;22.73;14.07;;;;;;;12.60;73.11;100142.78;2093786;82;21030;-66
2021/07/24 02:11:02;;;;;;;24.35;15.23;;;;;;;12.55;73.57;100141.98;2103396;83;21036;-68
2021/07/24 02:14:06;;;;;;;23.32;14.13;;;;;;;12.46;73.97;100138.55;2072119;83;21145;-66
2021/07/24 02:17:09;;;;;;;19.25;12.82;;;;;;;12.37;74.20;100137.48;2093215;83;21160;-67
2021/07/24 02:20:17;;;;;;;16.55;10.30;;;;;;;12.34;74.12;100133.34;2079038;82;21404;-67
2021/07/24 02:23:20;;;;;;;20.00;13.95;;;;;;;12.34;73.83;100141.32;2088749;83;21038;-66
2021/07/24 02:26:23;;;;;;;20.32;14.55;;;;;;;12.28;73.84;100131.39;2084190;82;21655;-69
2021/07/24 02:29:24;;;;;;;19.60;13.53;;;;;;;12.32;74.28;100130.02;2078858;83;21160;-72
2021/07/24 02:32:27;;;;;;;18.98;13.20;;;;;;;12.29;74.05;100123.73;2073249;83;21869;-68
2021/07/24 02:35:29;;;;;;;20.60;12.45;;;;;;;12.24;74.01;100113.61;2093250;83;21088;-67
2021/07/24 02:38:48;;;;;;;23.20;12.25;;;;;;;12.26;74.13;100124.09;2035818;85;21231;-71
2021/07/24 02:41:49;;;;;;;19.27;12.15;;;;;;;12.30;74.13;100127.55;2086791;83;21124;-66
2021/07/24 02:44:52;;;;;;;19.12;11.88;;;;;;;12.31;73.97;100127.87;2083358;83;22146;-69
2021/07/24 02:47:53;;;;;;;21.70;15.38;;;;;;;12.31;73.69;100123.05;2090216;83;21567;-67
2021/07/24 02:50:55;;;;;;;23.32;15.85;;;;;;;12.20;74.45;100122.14;2099445;82;21569;-69
2021/07/24 02:53:57;;;;;;;24.18;15.53;;;;;;;12.15;74.85;100117.84;2091046;82;21207;-69
2021/07/24 02:56:59;;;;;;;25.88;14.63;;;;;;;12.05;75.01;100114.92;2096535;82;21877;-69
2021/07/24 03:00:05;;;;;;;25.25;15.38;;;;;;;11.96;75.32;100117.80;2089645;83;21391;-68
2021/07/24 03:03:08;;;;;;;26.45;15.93;;;;;;;11.94;75.51;100118.46;2091864;82;21144;-68
2021/07/24 03:06:09;;;;;;;22.82;13.72;;;;;;;11.94;75.56;100111.81;2086176;82;21078;-67
2021/07/24 03:09:12;;;;;;;18.52;12.88;;;;;;;12.09;75.12;100120.71;2090354;83;21054;-67
2021/07/24 03:12:16;;;;;;;20.82;13.05;;;;;;;12.09;75.12;100120.71;2083650;83;21375;-70
2021/07/24 03:15:17;;;;;;;20.62;12.68;;;;;;;12.00;75.08;100103.16;2091519;82;21110;-70
2021/07/24 03:18:18;;;;;;;24.55;14.05;;;;;;;12.14;74.99;100128.99;2092354;82;21551;-71
2021/07/24 03:21:20;;;;;;;27.30;14.00;;;;;;;12.16;75.08;100125.63;2082557;82;21128;-71
2021/07/24 03:24:22;;;;;;;21.73;14.70;;;;;;;12.20;75.18;100121.63;2080619;82;21116;-66
2021/07/24 03:27:24;;;;;;;18.75;12.55;;;;;;;12.27;75.46;100125.73;2083284;83;21667;-70
2021/07/24 03:30:26;;;;;;;22.07;12.73;;;;;;;12.32;75.21;100126.85;2088824;82;21077;-68
2021/07/24 03:33:27;;;;;;;21.97;13.13;;;;;;;12.33;75.05;100129.00;2092862;81;21085;-69
2021/07/24 03:36:29;;;;;;;22.85;12.58;;;;;;;12.36;75.04;100130.48;2080616;83;20989;-67
2021/07/24 03:39:30;;;;;;;20.77;13.55;;;;;;;12.35;74.92;100141.64;2082800;83;21149;-70
2021/07/24 03:42:32;;;;;;;23.65;13.72;;;;;;;12.47;75.05;100139.38;2089503;82;21085;-68
2021/07/24 03:45:34;;;;;;;23.90;15.98;;;;;;;12.63;75.12;100134.44;2094556;82;21631;-69
2021/07/24 03:48:35;;;;;;;18.60;13.28;;;;;;;12.75;75.05;100128.99;2078030;83;21100;-67
2021/07/24 03:51:39;;;;;;;26.73;15.93;;;;;;;12.94;74.99;100129.81;2082206;82;21689;-72
2021/07/24 03:54:41;;;;;;;28.47;15.80;;;;;;;13.16;74.81;100132.59;2085701;82;21131;-71
2021/07/24 03:57:42;;;;;;;25.52;15.63;;;;;;;13.38;74.80;100121.05;2105880;82;21050;-72
2021/07/24 04:00:48;;;;;;;21.37;14.90;;;;;;;13.63;74.84;100123.42;2082659;82;21106;-66
2021/07/24 04:03:48;;;;;;;19.32;14.23;;;;;;;13.96;74.68;100126.95;2092783;82;21109;-72
2021/07/24 04:06:51;;;;;;;20.75;13.55;;;;;;;14.25;74.17;100122.05;2085857;83;21117;-68
2021/07/24 04:09:54;;;;;;;21.87;14.80;;;;;;;14.52;74.00;100131.95;2092427;83;21102;-71
2021/07/24 04:12:55;;;;;;;25.27;14.73;;;;;;;14.87;73.79;100125.37;2102046;82;21060;-67
2021/07/24 04:15:57;;;;;;;26.73;15.72;;;;;;;15.25;73.69;100124.47;2102976;82;21030;-67
2021/07/24 04:19:00;;;;;;;22.10;14.80;;;;;;;15.66;73.33;100121.49;2094821;83;21021;-67
2021/07/24 04:22:03;;;;;;;23.55;14.35;;;;;;;16.01;72.58;100121.42;2074325;82;21076;-68
2021/07/24 04:25:06;;;;;;;18.20;14.83;;;;;;;16.36;72.50;100122.12;2080019;82;21099;-68
2021/07/24 04:28:07;;;;;;;18.05;12.82;;;;;;;16.75;72.09;100125.81;2082164;82;21566;-69
2021/07/24 04:31:18;;;;;;;22.25;14.25;;;;;;;17.12;71.71;100124.87;2088873;82;21073;-69
2021/07/24 04:34:18;;;;;;;26.87;15.50;;;;;;;17.65;71.37;100120.69;2081215;82;21087;-72
2021/07/24 04:37:19;;;;;;;24.40;13.93;;;;;;;18.14;70.87;100116.56;2088337;83;21039;-68
2021/07/24 04:40:21;;;;;;;21.90;14.87;;;;;;;18.70;70.36;100122.97;2078396;83;21014;-69
2021/07/24 04:43:23;;;;;;;23.15;14.25;;;;;;;19.15;69.47;100120.91;2086682;83;21201;-67
2021/07/24 04:46:24;;;;;;;21.30;14.98;;;;;;;19.57;68.67;100110.30;2099810;81;21195;-69
2021/07/24 04:49:26;;;;;;;25.80;15.53;;;;;;;19.90;67.99;100113.10;2088606;82;21430;-68
2021/07/24 04:52:29;;;;;;;23.77;15.08;;;;;;;20.20;67.33;100114.98;2073188;83;22094;-67
2021/07/24 04:55:31;;;;;;;23.38;15.20;;;;;;;20.51;66.57;100116.03;2081102;83;21700;-68
2021/07/24 04:58:35;;;;;;;23.73;15.03;;;;;;;20.78;66.19;100111.59;2114604;82;21084;-68
2021/07/24 05:01:36;;;;;;;22.05;15.40;;;;;;;20.99;65.31;100111.52;2095643;82;21055;-68
2021/07/24 05:04:38;;;;;;;19.82;15.68;;;;;;;21.12;64.83;100109.94;2035369;85;21072;-70
2021/07/24 05:07:41;;;;;;;20.70;14.70;;;;;;;21.22;63.69;100107.97;2074388;83;21101;-67
2021/07/24 05:10:43;;;;;;;22.25;15.75;;;;;;;21.16;63.08;100116.48;2059257;83;21114;-73
2021/07/24 05:13:46;;;;;;;19.48;14.70;;;;;;;21.08;63.20;100113.33;2089025;83;21057;-68
2021/07/24 05:16:48;;;;;;;21.23;15.45;;;;;;;21.43;63.33;100114.14;2071536;83;21093;-68
2021/07/24 05:19:49;;;;;;;20.88;15.15;;;;;;;21.81;63.16;100111.36;2077415;83;21207;-69
2021/07/24 05:22:51;;;;;;;19.60;14.90;;;;;;;22.18;62.82;100119.09;2077743;83;21080;-67
2021/07/24 05:25:53;;;;;;;19.60;16.05;;;;;;;22.47;62.13;100105.52;2083683;83;21074;-67
2021/07/24 05:28:55;;;;;;;21.75;14.70;;;;;;;22.57;60.79;100110.56;2074483;83;21062;-68
2021/07/24 05:31:57;;;;;;;21.10;15.68;;;;;;;22.77;61.13;100108.71;2078528;83;21114;-67
2021/07/24 05:35:00;;;;;;;18.45;13.48;;;;;;;23.11;60.85;100102.46;2081433;83;21136;-69
2021/07/24 05:38:01;;;;;;;19.80;13.55;;;;;;;23.58;60.25;100108.21;2084492;83;21133;-67
2021/07/24 05:41:03;;;;;;;16.52;13.40;;;;;;;24.10;59.15;100101.47;2082952;83;21089;-67
2021/07/24 05:44:05;;;;;;;17.85;14.18;;;;;;;24.33;58.36;100103.88;2073751;83;21152;-70
2021/07/24 05:47:08;;;;;;;19.95;13.22;;;;;;;24.61;57.94;100095.17;2069552;83;21643;-72
2021/07/24 05:50:10;;;;;;;15.90;13.55;;;;;;;24.85;56.93;100098.86;2082699;83;21096;-69
2021/07/24 05:53:12;;;;;;;16.93;12.65;;;;;;;24.97;56.99;100100.27;2082696;83;21057;-68
2021/07/24 05:56:13;;;;;;;18.00;13.68;;;;;;;25.22;56.15;100102.89;2081068;83;21019;-68
2021/07/24 05:59:15;;;;;;;18.40;13.13;;;;;;;25.37;55.80;100102.13;2089987;82;21680;-67
2021/07/24 06:02:17;;;;;;;15.23;12.43;;;;;;;25.60;55.58;100107.69;2069301;83;21064;-68
2021/07/24 06:05:19;;;;;;;15.60;13.40;;;;;;;25.97;54.93;100108.08;2076961;83;21160;-68
2021/07/24 06:08:21;;;;;;;16.65;13.08;;;;;;;26.17;54.10;100101.31;2077184;83;22026;-71
2021/07/24 06:11:22;;;;;;;18.92;12.53;;;;;;;26.36;53.68;100103.77;2080719;83;21835;-68
2021/07/24 06:14:25;;;;;;;13.08;10.95;;;;;;;26.56;53.10;100107.61;2074274;83;21083;-68
2021/07/24 06:17:26;;;;;;;19.27;12.40;;;;;;;26.94;52.40;100108.09;2080183;83;21175;-66
2021/07/24 06:20:28;;;;;;;18.65;11.60;;;;;;;27.20;52.29;100106.98;2081517;83;21015;-68
2021/07/24 06:23:30;;;;;;;15.50;12.30;;;;;;;27.64;51.79;100110.88;2082504;83;21140;-69
2021/07/24 06:26:37;;;;;;;16.82;11.78;;;;;;;27.98;51.21;100116.42;2083184;83;21615;-70
2021/07/24 06:29:39;;;;;;;14.40;10.88;;;;;;;28.38;50.70;100107.68;2062059;83;21151;-66
2021/07/24 06:32:41;;;;;;;15.40;11.50;;;;;;;28.53;49.56;100110.33;2092117;83;21651;-66
2021/07/24 06:35:43;;;;;;;15.78;11.33;;;;;;;28.57;48.89;100105.91;2082587;83;21057;-67
2021/07/24 06:38:44;;;;;;;16.15;11.83;;;;;;;28.76;48.83;100110.66;2089806;83;22106;-67
2021/07/24 06:41:46;;;;;;;18.50;10.63;;;;;;;28.87;48.38;100110.83;2073553;83;22360;-65
2021/07/24 06:44:47;;;;;;;14.13;10.55;;;;;;;28.84;47.62;100110.04;2065072;83;21125;-68
2021/07/24 06:47:49;;;;;;;13.32;10.63;;;;;;;28.91;47.72;100115.95;2080433;83;21058;-65
2021/07/24 06:50:51;;;;;;;12.82;10.88;;;;;;;28.99;46.91;100107.14;2053896;84;21114;-66
2021/07/24 06:53:53;;;;;;;13.45;10.00;;;;;;;29.02;46.12;100114.75;2082566;83;21757;-69
2021/07/24 06:56:54;;;;;;;13.85;10.32;;;;;;;28.78;46.43;100114.73;2067328;83;21582;-70
2021/07/24 06:59:56;;;;;;;12.88;10.05;;;;;;;28.83;45.97;100122.05;2071543;83;21153;-69
2021/07/24 07:03:01;;;;;;;15.93;10.13;;;;;;;29.00;45.99;100117.50;2066019;83;21147;-67
2021/07/24 07:06:13;;;;;;;14.03;10.68;;;;;;;29.07;45.59;100109.83;2073426;83;22310;-71
2021/07/24 07:09:13;;;;;;;15.55;10.48;;;;;;;28.76;44.78;100115.56;2085136;83;21100;-68
2021/07/24 07:12:14;;;;;;;12.53;10.40;;;;;;;28.87;45.85;100108.66;2087064;83;21641;-67
2021/07/24 07:15:17;;;;;;;12.53;10.23;;;;;;;28.88;44.95;100106.98;2074805;83;21025;-67
2021/07/24 07:18:18;;;;;;;14.40;10.60;;;;;;;28.78;44.99;100115.30;2064617;83;21132;-68
2021/07/24 07:21:20;;;;;;;12.30;10.15;;;;;;;28.55;44.05;100112.75;2078216;83;21109;-68
2021/07/24 07:24:22;;;;;;;16.27;10.00;;;;;;;28.62;44.03;100109.71;2086128;83;21050;-70
2021/07/24 07:27:23;;;;;;;11.88;10.03;;;;;;;28.70;43.25;100106.36;2078078;83;21079;-68
2021/07/24 07:30:25;;;;;;;12.07;9.23;;;;;;;28.76;44.64;100104.65;2085630;83;21084;-70
2021/07/24 07:33:26;;;;;;;11.33;10.05;;;;;;;28.97;43.51;100111.26;2082964;83;21065;-71
2021/07/24 07:36:28;;;;;;;12.05;9.78;;;;;;;28.66;43.31;100107.47;2079474;83;21089;-69
2021/07/24 07:39:30;;;;;;;12.13;9.75;;;;;;;28.68;43.85;100101.73;2004731;85;21526;-73
2021/07/24 07:42:32;;;;;;;9.95;8.55;;;;;;;28.75;42.38;100103.59;2018097;86;22002;-71
2021/07/24 07:45:33;;;;;;;15.78;9.33;;;;;;;28.66;42.62;100107.47;2014760;86;21578;-71
2021/07/24 07:48:36;;;;;;;12.37;9.25;;;;;;;28.44;41.08;100094.31;2012190;85;21072;-71
2021/07/24 07:51:38;;;;;;;13.28;9.93;;;;;;;28.44;42.13;100103.86;2019487;85;21134;-71
2021/07/24 07:54:40;;;;;;;11.22;8.80;;;;;;;28.75;42.03;100106.32;2019194;86;21036;-71
2021/07/24 07:57:42;;;;;;;10.88;9.13;;;;;;;28.81;42.03;100105.16;2029958;85;21060;-71
2021/07/24 08:00:44;;;;;;;10.60;8.63;;;;;;;29.11;41.46;100105.39;2017152;85;21096;-71
2021/07/24 08:03:46;;;;;;;11.68;9.53;;;;;;;29.14;41.05;100110.83;2080079;82;21074;-71
2021/07/24 08:06:47;;;;;;;10.68;9.08;;;;;;;29.29;40.81;100110.67;2078627;83;21044;-71
2021/07/24 08:09:49;;;;;;;9.48;8.08;;;;;;;29.50;41.59;100102.46;2094502;83;21033;-71
2021/07/24 08:12:51;;;;;;;10.88;8.88;;;;;;;29.65;40.69;100104.76;2080536;82;21024;-71
2021/07/24 08:15:54;;;;;;;12.13;9.13;;;;;;;29.55;40.66;100098.05;2093303;83;21132;-71
2021/07/24 08:18:55;;;;;;;11.15;9.00;;;;;;;29.94;40.44;100099.17;2088821;83;21078;-71
2021/07/24 08:21:57;;;;;;;10.23;8.30;;;;;;;30.11;39.74;100098.64;2094089;83;21046;-71
2021/07/24 08:24:59;;;;;;;13.60;8.53;;;;;;;30.14;39.01;100101.59;2073522;83;21594;-71
2021/07/24 08:28:05;;;;;;;10.05;8.05;;;;;;;30.19;39.11;100097.97;2079615;83;21161;-71
2021/07/24 08:31:06;;;;;;;8.00;6.87;;;;;;;30.19;37.69;100061.59;2082547;83;21643;-71
2021/07/24 08:34:08;;;;;;;10.70;8.15;;;;;;;30.19;37.69;100061.59;2080666;83;21006;-71
2021/07/24 08:37:10;;;;;;;10.08;7.40;;;;;;;30.15;36.71;100077.21;2084707;83;21034;-70
2021/07/24 08:40:16;;;;;;;14.55;7.33;;;;;;;29.78;37.44;100075.33;2086365;83;21099;-73
2021/07/24 08:43:18;;;;;;;12.90;7.58;;;;;;;29.84;36.85;100071.41;2068489;83;21057;-73
2021/07/24 08:46:20;;;;;;;9.38;7.33;;;;;;;29.63;34.67;100065.99;2072767;83;21587;-74
2021/07/24 08:49:21;;;;;;;8.18;6.95;;;;;;;29.32;35.31;100074.56;2075440;83;21078;-73
2021/07/24 08:52:30;;;;;;;8.80;6.60;;;;;;;29.18;35.33;100066.82;2086429;83;21590;-75
2021/07/24 08:55:32;;;;;;;8.63;6.78;;;;;;;29.11;35.21;100067.16;2073742;83;21103;-72
2021/07/24 08:58:35;;;;;;;11.40;7.45;;;;;;;29.19;33.80;100064.34;2071455;83;21098;-73
2021/07/24 09:01:40;;;;;;;9.28;6.20;;;;;;;29.03;34.09;100067.27;2071920;83;21140;-73
2021/07/24 09:04:46;;;;;;;8.00;6.25;;;;;;;29.29;34.78;100057.95;2091145;83;21082;-74
2021/07/24 09:07:50;;;;;;;11.20;6.58;;;;;;;29.48;34.46;100065.06;2084583;83;21149;-75
2021/07/24 09:10:52;;;;;;;9.53;6.60;;;;;;;29.48;33.98;100056.87;2045891;84;21045;-72
2021/07/24 09:13:55;;;;;;;7.83;6.62;;;;;;;29.58;34.72;100050.44;2061464;84;21042;-73
2021/07/24 09:16:57;;;;;;;7.78;6.42;;;;;;;29.75;34.18;100044.48;2063696;84;21630;-73
2021/07/24 09:19:59;;;;;;;9.20;6.62;;;;;;;29.86;33.20;100046.52;2065394;84;21678;-73
2021/07/24 09:23:25;;;;;;;7.78;6.22;;;;;;;29.54;33.16;100040.37;2041225;84;21149;-73
2021/07/24 09:26:34;;;;;;;9.73;6.30;;;;;;;29.36;33.18;100020.94;2077525;83;21644;-74
2021/07/24 09:29:38;;;;;;;8.95;6.20;;;;;;;29.36;33.18;100020.94;2079117;83;21145;-72
2021/07/24 09:32:39;;;;;;;6.67;6.00;;;;;;;29.78;34.03;100029.41;2069020;83;21106;-72
2021/07/24 09:35:45;;;;;;;8.98;7.05;;;;;;;30.03;33.30;100013.95;2091548;83;21088;-73
2021/07/24 09:38:47;;;;;;;7.08;6.37;;;;;;;30.03;33.30;100013.95;2087723;83;21105;-73
2021/07/24 09:41:49;;;;;;;8.50;6.30;;;;;;;30.06;33.53;100014.72;2087593;83;21121;-71
2021/07/24 09:45:06;;;;;;;7.58;6.78;;;;;;;30.01;31.07;100022.20;2023468;85;21340;-71
2021/07/24 09:48:16;;;;;;;7.70;6.85;;;;;;;29.54;31.62;100019.87;2013995;86;21549;-70
2021/07/24 09:51:36;;;;;;;7.12;6.30;;;;;;;29.35;32.51;100016.59;2083252;83;21139;-71
2021/07/24 09:54:38;;;;;;;6.83;6.10;;;;;;;29.56;31.97;100012.20;2080496;83;21074;-72
2021/07/24 09:57:40;;;;;;;7.97;6.20;;;;;;;29.56;31.97;100012.20;2067571;83;21061;-73
2021/07/24 10:00:42;;;;;;;12.03;7.28;;;;;;;29.38;32.42;100008.36;2083481;82;21114;-71
2021/07/24 10:03:49;;;;;;;8.68;6.97;;;;;;;29.42;31.47;100019.76;2081799;83;21108;-72
2021/07/24 10:06:52;;;;;;;6.70;6.00;;;;;;;29.48;32.16;100024.07;2063178;83;21052;-76
2021/07/24 10:09:53;;;;;;;7.58;6.28;;;;;;;29.66;32.85;100025.76;2084345;83;21375;-74
2021/07/24 10:12:55;;;;;;;8.80;6.20;;;;;;;29.62;30.84;100021.94;2079228;83;22258;-73
2021/07/24 10:15:57;;;;;;;8.05;6.30;;;;;;;30.05;32.91;100016.41;2078882;83;21639;-72
2021/07/24 10:18:58;;;;;;;10.43;7.25;;;;;;;30.05;32.91;100016.41;2074969;83;21079;-72
2021/07/24 10:22:02;;;;;;;7.90;6.40;;;;;;;30.12;32.00;100016.25;2081346;82;21120;-73
2021/07/24 10:25:05;;;;;;;9.93;6.65;;;;;;;29.90;32.21;99995.03;2092953;83;21092;-71
2021/07/24 10:28:10;;;;;;;8.65;6.60;;;;;;;29.85;30.54;100016.98;2084289;83;21111;-72
2021/07/24 10:31:15;;;;;;;8.98;6.62;;;;;;;29.43;32.10;100011.84;2073388;83;21162;-72
2021/07/24 10:34:29;;;;;;;10.13;7.00;;;;;;;29.43;32.10;100011.84;2083936;83;21132;-74
2021/07/24 10:37:44;;;;;;;8.03;7.22;;;;;;;29.35;31.36;100008.95;2057579;83;21075;-72
2021/07/24 10:40:46;;;;;;;9.08;7.53;;;;;;;29.55;32.57;100020.15;2074088;83;21344;-75
2021/07/24 10:44:06;;;;;;;7.40;6.70;;;;;;;29.96;32.25;100015.44;2081719;83;22280;-72
2021/07/24 10:47:08;;;;;;;;;;;;;;;30.31;32.35;100016.80;2072532;83;21607;-75
2021/07/24 10:50:10;;;;;;;8.70;6.53;;;;;;;30.52;32.09;99994.80;2088808;83;20649;-73
2021/07/24 10:53:12;;;;;;;7.33;6.00;;;;;;;30.52;32.09;99994.80;2082025;83;21045;-71
2021/07/24 10:56:39;;;;;;;8.88;6.80;;;;;;;30.95;31.99;100012.89;2077743;83;21124;-73
2021/07/24 10:59:40;;;;;;;9.50;6.47;;;;;;;31.21;31.41;100014.53;2069590;83;21120;-73
2021/07/24 11:02:50;;;;;;;8.95;6.53;;;;;;;31.10;31.67;100007.08;2073854;83;21116;-72
2021/07/24 11:05:52;;;;;;;8.98;6.83;;;;;;;31.18;31.39;100006.92;2073631;83;21117;-72
2021/07/24 11:09:09;;;;;;;8.50;7.08;;;;;;;31.17;30.60;100003.91;2092073;83;21069;-71
2021/07/24 11:12:17;;;;;;;9.58;6.90;;;;;;;30.95;30.33;100000.00;2078293;83;21132;-71
2021/07/24 11:15:22;;;;;;;9.48;7.08;;;;;;;30.89;30.19;99989.44;2055204;84;21084;-71
2021/07/24 11:18:26;;;;;;;10.63;7.10;;;;;;;30.90;31.10;99989.70;2026126;85;21019;-73
2021/07/24 11:22:09;;;;;;;9.13;7.40;;;;;;;31.01;31.10;99989.19;2087867;82;21091;-71
2021/07/24 11:25:22;;;;;;;9.83;7.12;;;;;;;30.93;30.64;99977.58;2041142;84;21569;-71
2021/07/24 11:28:23;;;;;;;8.65;7.28;;;;;;;30.72;29.81;99977.16;2023784;85;21252;-71
2021/07/24 11:31:25;;;;;;;9.75;7.03;;;;;;;30.19;30.52;99974.84;2083725;82;21063;-71
2021/07/24 11:34:30;;;;;;;9.30;7.42;;;;;;;30.11;30.42;99979.64;2097862;82;21077;-71
2021/07/24 11:37:45;;;;;;;8.38;7.42;;;;;;;30.33;30.74;99983.11;2091314;83;21077;-70
2021/07/24 11:40:58;;;;;;;9.18;8.08;;;;;;;30.44;30.58;99979.61;2093739;82;21068;-71
2021/07/24 11:44:00;;;;;;;8.95;7.28;;;;;;;30.22;30.85;99968.80;2069077;83;21580;-71
2021/07/24 11:47:04;;;;;;;10.43;8.08;;;;;;;30.08;31.10;99948.78;2085743;82;21587;-73
2021/07/24 11:50:17;;;;;;;8.18;7.20;;;;;;;30.17;31.31;99948.34;2100072;82;21013;-71
2021/07/24 11:53:21;;;;;;;8.88;7.55;;;;;;;30.21;29.87;99974.53;2093028;82;21062;-71
2021/07/24 11:56:25;;;;;;;10.28;7.70;;;;;;;29.59;30.15;99955.56;2101515;82;21089;-73
2021/07/24 11:59:28;;;;;;;8.88;7.28;;;;;;;29.41;29.75;99974.42;2102916;82;21087;-70
2021/07/24 12:02:30;;;;;;;7.75;7.05;;;;;;;29.29;29.38;99971.33;2088748;83;21113;-70
2021/07/24 12:05:31;;;;;;;7.90;7.10;;;;;;;29.31;29.85;99965.55;2078567;83;21533;-72
2021/07/24 12:08:33;;;;;;;9.68;7.92;;;;;;;29.60;30.81;99961.31;2100285;82;21108;-72
2021/07/24 12:11:36;;;;;;;9.68;7.45;;;;;;;29.93;30.94;99962.98;2090223;83;21021;-71
2021/07/24 12:14:38;;;;;;;9.15;7.65;;;;;;;29.93;30.94;99962.98;2090830;83;21068;-71
2021/07/24 12:17:39;;;;;;;8.58;7.00;;;;;;;30.12;29.77;99956.63;2098543;83;21128;-72
2021/07/24 12:20:41;;;;;;;8.70;7.45;;;;;;;29.89;30.54;99955.66;2087681;82;21069;-73
2021/07/24 12:24:03;;;;;;;9.20;7.20;;;;;;;29.70;30.64;99957.06;2089724;82;21082;-71
2021/07/24 12:27:11;;;;;;;12.25;7.05;;;;;;;29.50;30.43;99958.16;2093419;83;21081;-73
2021/07/24 12:30:29;;;;;;;9.95;7.65;;;;;;;29.12;30.31;99960.09;2088071;82;21088;-72
2021/07/24 12:33:54;;;;;;;10.55;7.65;;;;;;;28.64;30.63;99952.74;2102205;82;21046;-71
2021/07/24 12:37:00;;;;;;;10.10;7.20;;;;;;;28.70;31.76;99945.31;2091023;83;22238;-72
2021/07/24 12:40:21;;;;;;;9.68;7.92;;;;;;;28.99;31.19;99946.56;2076516;82;21093;-72
2021/07/24 12:43:23;;;;;;;9.08;6.70;;;;;;;29.04;30.81;99940.52;2063256;83;21056;-71
2021/07/24 12:46:25;;;;;;;10.15;7.62;;;;;;;29.22;30.61;99933.98;2088761;83;21537;-71
2021/07/24 12:49:36;;;;;;;10.65;7.53;;;;;;;29.20;30.72;99936.19;2062689;83;22358;-72
2021/07/24 12:52:49;;;;;;;8.65;7.62;;;;;;;29.16;30.10;99931.07;2087845;83;21077;-72
2021/07/24 12:55:53;;;;;;;9.45;7.30;;;;;;;29.23;30.56;99935.07;2093191;83;21715;-71
2021/07/24 12:58:55;;;;;;;8.25;7.20;;;;;;;29.33;30.65;99934.66;2076185;82;21149;-73
2021/07/24 13:01:56;;;;;;;8.53;7.05;;;;;;;29.54;29.78;99926.94;2090935;82;21072;-72
2021/07/24 13:04:58;;;;;;;10.63;8.03;;;;;;;29.66;29.91;99936.91;2081988;82;21639;-73
2021/07/24 13:08:00;;;;;;;11.15;7.00;;;;;;;29.80;30.08;99933.66;2100775;82;21581;-72
2021/07/24 13:11:01;;;;;;;10.75;7.58;;;;;;;29.86;29.38;99933.83;2093375;82;21761;-71
2021/07/24 13:14:04;;;;;;;8.23;7.30;;;;;;;29.97;29.09;99936.40;2087818;83;21105;-72
2021/07/24 13:17:05;;;;;;;8.45;7.37;;;;;;;29.92;28.46;99935.36;2099240;82;21033;-71
2021/07/24 13:20:08;;;;;;;8.25;7.25;;;;;;;29.78;28.52;99937.24;2087569;82;21116;-71
2021/07/24 13:23:10;;;;;;;8.40;6.90;;;;;;;29.74;28.36;99938.97;2096879;83;21065;-73
2021/07/24 13:29:32;;;;;;;8.08;7.28;;;;;;;29.89;28.77;99937.33;2073006;82;21224;-72
2021/07/24 13:32:34;;;;;;;7.22;6.53;;;;;;;30.04;28.59;99925.86;2084574;83;22330;-74
2021/07/24 13:35:35;;;;;;;7.67;6.87;;;;;;;30.22;28.85;99927.76;2088495;83;21194;-72
2021/07/24 13:38:38;;;;;;;8.28;7.47;;;;;;;30.36;29.06;99931.87;2102198;82;21097;-79
2021/07/24 13:41:40;;;;;;;9.05;7.08;;;;;;;30.13;29.08;99911.77;2088045;83;21098;-77
2021/07/24 13:44:41;;;;;;;9.38;6.55;;;;;;;30.13;29.08;99911.77;2090580;82;21106;-76
2021/07/24 13:47:43;;;;;;;8.70;7.65;;;;;;;30.23;28.96;99934.84;2088708;83;22259;-76
2021/07/24 13:50:45;;;;;;;7.90;7.10;;;;;;;30.16;28.49;99930.31;2102043;82;21095;-80
2021/07/24 13:53:46;;;;;;;10.48;7.37;;;;;;;30.16;28.49;99930.31;2093066;83;21068;-77
2021/07/24 13:56:48;;;;;;;12.75;7.22;;;;;;;29.78;29.41;99925.50;2076144;83;21060;-76
2021/07/24 13:59:49;;;;;;;9.40;7.40;;;;;;;29.78;29.41;99925.50;2081442;82;21597;-76
2021/07/24 14:02:51;;;;;;;7.12;6.45;;;;;;;29.58;29.03;99919.23;2104668;82;21076;-76
2021/07/24 14:06:02;;;;;;;7.95;6.90;;;;;;;29.52;28.84;99936.82;2084280;83;21049;-77
2021/07/24 14:09:04;;;;;;;7.83;7.03;;;;;;;29.47;29.51;99932.23;2090727;82;21056;-75
2021/07/24 14:12:06;;;;;;;8.15;7.40;;;;;;;29.32;29.33;99929.75;2095628;82;23358;-77
2021/07/24 14:15:08;;;;;;;9.15;7.42;;;;;;;29.19;30.03;99932.66;2099016;83;21020;-76